createdAt,value
2023-09-08T00:00:02.067Z,6.82
2023-09-08T00:02:30.964Z,8.68
2023-09-08T00:04:57.695Z,8.88
2023-09-08T00:07:24.493Z,6.50
2023-09-08T00:09:51.214Z,8.07
2023-09-08T00:12:18.093Z,9.70
2023-09-08T00:14:45.192Z,13.82
2023-09-08T00:17:14.227Z,8.45
2023-09-08T00:19:42.420Z,7.85
2023-09-08T00:22:09.132Z,7.60
2023-09-08T00:24:36.544Z,6.25
2023-09-08T00:27:03.322Z,9.60
2023-09-08T00:29:29.947Z,10.07
2023-09-08T00:31:57.690Z,9.07
2023-09-08T00:34:24.401Z,9.25
2023-09-08T00:36:52.143Z,7.78
2023-09-08T00:39:18.731Z,8.43
2023-09-08T00:41:45.321Z,8.85
2023-09-08T00:44:12.475Z,8.40
2023-09-08T00:46:40.674Z,7.60
2023-09-08T00:49:09.588Z,7.75
2023-09-08T00:51:38.747Z,11.45
2023-09-08T00:54:06.424Z,10.45
2023-09-08T00:56:34.016Z,8.52
2023-09-08T00:59:00.781Z,7.60
2023-09-08T01:01:27.393Z,9.88
2023-09-08T01:03:54.064Z,7.43
2023-09-08T01:06:20.878Z,13.02
2023-09-08T01:08:48.008Z,7.60
2023-09-08T01:11:14.800Z,8.43
2023-09-08T01:13:41.453Z,8.38
2023-09-08T01:16:08.927Z,7.20
2023-09-08T01:18:35.974Z,9.43
2023-09-08T01:21:29.871Z,12.38
2023-09-08T01:24:11.638Z,20.10
2023-09-08T01:26:42.214Z,14.65
2023-09-08T01:29:10.460Z,11.70
2023-09-08T01:31:39.120Z,15.10
2023-09-08T01:34:07.939Z,11.05
2023-09-08T01:36:37.788Z,13.52
2023-09-08T01:39:04.582Z,11.15
2023-09-08T01:41:33.278Z,13.32
2023-09-08T01:44:01.128Z,11.55
2023-09-08T01:46:27.735Z,12.57
2023-09-08T01:48:54.465Z,12.02
2023-09-08T01:51:21.102Z,11.02
2023-09-08T01:53:47.815Z,10.98
2023-09-08T01:56:14.425Z,14.07
2023-09-08T01:58:41.031Z,9.98
2023-09-08T02:01:07.720Z,10.48
2023-09-08T02:03:35.549Z,12.25
2023-09-08T02:06:02.140Z,9.65
2023-09-08T02:08:28.842Z,10.40
2023-09-08T02:10:55.445Z,7.45
2023-09-08T02:13:23.152Z,8.98
2023-09-08T02:15:49.942Z,9.30
2023-09-08T02:18:16.647Z,8.65
2023-09-08T02:20:43.339Z,9.70
2023-09-08T02:23:10.110Z,11.35
2023-09-08T02:25:36.725Z,9.13
2023-09-08T02:28:03.699Z,9.60
2023-09-08T02:30:30.340Z,9.70
2023-09-08T02:32:57.657Z,8.18
2023-09-08T02:35:25.675Z,13.35
2023-09-08T02:37:54.296Z,8.25
2023-09-08T02:40:21.790Z,9.02
2023-09-08T02:42:49.789Z,8.70
2023-09-08T02:45:16.742Z,11.63
2023-09-08T02:47:43.576Z,12.05
2023-09-08T02:50:11.442Z,12.00
2023-09-08T02:52:38.144Z,10.32
2023-09-08T02:55:05.106Z,8.13
2023-09-08T02:57:31.699Z,8.68
2023-09-08T02:59:58.370Z,8.20
2023-09-08T03:02:27.937Z,7.57
2023-09-08T03:04:55.558Z,8.68
2023-09-08T03:07:22.302Z,7.15
2023-09-08T03:09:49.153Z,9.95
2023-09-08T03:12:16.042Z,9.15
2023-09-08T03:14:42.716Z,8.35
2023-09-08T03:17:09.737Z,8.00
2023-09-08T03:19:36.456Z,9.23
2023-09-08T03:22:03.355Z,11.55
2023-09-08T03:24:30.152Z,7.75
2023-09-08T03:27:00.086Z,9.75
2023-09-08T03:29:28.994Z,8.32
2023-09-08T03:31:55.746Z,8.35
2023-09-08T03:34:23.635Z,8.48
2023-09-08T03:36:50.553Z,8.82
2023-09-08T03:39:17.471Z,11.43
2023-09-08T03:41:44.094Z,10.07
2023-09-08T03:44:11.298Z,8.57
2023-09-08T03:46:38.105Z,10.82
2023-09-08T03:49:05.301Z,9.45
2023-09-08T03:51:31.969Z,9.18
2023-09-08T03:53:58.638Z,10.82
2023-09-08T03:56:25.299Z,10.50
2023-09-08T03:58:53.112Z,9.57
2023-09-08T04:01:19.965Z,9.23
2023-09-08T04:03:47.327Z,10.18
2023-09-08T04:06:13.962Z,9.88
2023-09-08T04:08:40.982Z,8.93
2023-09-08T04:11:07.530Z,9.10
2023-09-08T04:13:34.421Z,10.07
2023-09-08T04:16:01.312Z,14.05
2023-09-08T04:18:29.001Z,9.65
2023-09-08T04:20:55.922Z,7.60
2023-09-08T04:23:23.537Z,9.82
2023-09-08T04:25:50.491Z,12.77
2023-09-08T04:28:17.142Z,10.10
2023-09-08T04:30:43.873Z,13.00
2023-09-08T04:33:10.691Z,9.60
2023-09-08T04:35:37.753Z,7.72
2023-09-08T04:38:05.264Z,12.10
2023-09-08T04:40:31.974Z,8.93
2023-09-08T04:42:58.634Z,10.15
2023-09-08T04:45:25.348Z,9.35
2023-09-08T04:47:52.252Z,9.20
2023-09-08T04:50:20.332Z,9.27
2023-09-08T04:52:47.230Z,10.80
2023-09-08T04:55:14.288Z,14.45
2023-09-08T04:57:41.133Z,8.10
2023-09-08T05:00:09.203Z,10.30
2023-09-08T05:02:35.903Z,9.48
2023-09-08T05:05:04.136Z,11.48
2023-09-08T05:07:32.044Z,13.65
2023-09-08T05:09:59.025Z,10.60
2023-09-08T05:12:29.716Z,9.43
2023-09-08T05:15:01.078Z,11.70
2023-09-08T05:17:28.112Z,17.08
2023-09-08T05:19:54.789Z,13.90
2023-09-08T05:22:21.711Z,10.80
2023-09-08T05:24:48.618Z,12.15
2023-09-08T05:27:15.353Z,10.77
2023-09-08T05:29:41.944Z,10.73
2023-09-08T05:32:08.524Z,11.55
2023-09-08T05:34:35.413Z,12.23
2023-09-08T05:37:02.115Z,14.35
2023-09-08T05:39:28.801Z,15.10
2023-09-08T05:41:56.071Z,12.00
2023-09-08T05:44:22.846Z,11.32
2023-09-08T05:46:49.981Z,12.35
2023-09-08T05:49:16.668Z,10.32
2023-09-08T05:51:43.358Z,11.35
2023-09-08T05:54:10.198Z,10.60
2023-09-08T05:56:38.456Z,9.93
2023-09-08T05:59:05.476Z,9.52
2023-09-08T06:01:33.813Z,8.93
2023-09-08T06:04:02.205Z,10.68
2023-09-08T06:06:30.539Z,10.55
2023-09-08T06:08:58.960Z,9.27
2023-09-08T06:11:26.923Z,11.60
2023-09-08T06:13:57.033Z,9.23
2023-09-08T06:16:24.004Z,10.07
2023-09-08T06:18:50.649Z,12.52
2023-09-08T06:23:46.690Z,13.25
2023-09-08T06:26:14.242Z,11.27
2023-09-08T06:28:42.924Z,9.73
2023-09-08T06:31:09.761Z,8.52
2023-09-08T06:33:38.105Z,9.38
2023-09-08T06:36:05.632Z,15.07
2023-09-08T06:38:32.942Z,8.55
2023-09-08T06:41:01.944Z,9.27
2023-09-08T06:43:29.017Z,9.48
2023-09-08T06:46:03.851Z,11.85
2023-09-08T06:48:30.690Z,13.20
2023-09-08T06:50:57.680Z,11.02
2023-09-08T06:53:25.676Z,10.98
2023-09-08T06:55:52.546Z,13.80
2023-09-08T06:58:19.775Z,9.43
2023-09-08T07:00:46.968Z,10.63
2023-09-08T07:03:14.293Z,10.63
2023-09-08T07:05:41.614Z,9.25
2023-09-08T07:08:08.739Z,7.25
2023-09-08T07:10:35.421Z,8.35
2023-09-08T07:13:02.548Z,8.43
2023-09-08T07:15:29.217Z,8.05
2023-09-08T07:17:58.404Z,8.15
2023-09-08T07:20:25.483Z,7.53
2023-09-08T07:22:52.917Z,6.55
2023-09-08T07:25:20.600Z,14.75
2023-09-08T07:27:47.692Z,8.98
2023-09-08T07:30:21.468Z,10.70
2023-09-08T07:32:48.182Z,10.00
2023-09-08T07:35:16.816Z,7.45
2023-09-08T07:37:45.499Z,9.15
2023-09-08T07:40:13.620Z,8.23
2023-09-08T07:42:40.819Z,7.82
2023-09-08T07:45:10.332Z,7.90
2023-09-08T07:47:39.509Z,8.63
2023-09-08T07:52:53.494Z,10.63
2023-09-08T07:55:20.335Z,10.80
2023-09-08T07:57:47.374Z,10.68
2023-09-08T08:00:17.656Z,9.52
2023-09-08T08:02:50.704Z,9.20
2023-09-08T08:05:18.002Z,8.90
2023-09-08T08:07:45.460Z,12.20
2023-09-08T08:10:15.103Z,12.27
2023-09-08T08:12:43.248Z,15.13
2023-09-08T08:15:11.519Z,14.52
2023-09-08T08:17:38.842Z,14.20
2023-09-08T08:20:12.038Z,16.10
2023-09-08T08:22:38.829Z,18.92
2023-09-08T08:25:06.149Z,14.07
2023-09-08T08:27:32.846Z,13.80
2023-09-08T08:30:01.874Z,27.45
2023-09-08T08:32:30.183Z,17.75
2023-09-08T08:34:57.777Z,11.02
2023-09-08T08:37:24.634Z,13.13
2023-09-08T08:39:51.357Z,7.68
2023-09-08T08:42:18.558Z,15.00
2023-09-08T08:44:46.728Z,6.28
2023-09-08T08:47:17.041Z,7.47
2023-09-08T08:49:49.392Z,7.65
2023-09-08T08:52:16.352Z,6.43
2023-09-08T08:54:43.882Z,9.82
2023-09-08T08:57:12.235Z,11.20
2023-09-08T08:59:39.087Z,9.40
2023-09-08T09:02:06.588Z,5.70
2023-09-08T09:04:34.164Z,11.35
2023-09-08T09:07:00.972Z,5.93
2023-09-08T09:09:27.608Z,8.05
2023-09-08T09:11:54.540Z,10.07
2023-09-08T09:14:21.273Z,8.07
2023-09-08T09:16:48.908Z,5.85
2023-09-08T09:19:28.407Z,5.03
2023-09-08T09:21:56.430Z,6.10
2023-09-08T09:24:34.649Z,9.35
2023-09-08T09:27:02.306Z,10.80
2023-09-08T09:29:29.561Z,7.80
2023-09-08T09:32:05.229Z,9.82
2023-09-08T09:34:31.878Z,6.38
2023-09-08T09:36:58.551Z,7.13
2023-09-08T09:39:26.489Z,7.65
2023-09-08T09:41:57.596Z,6.00
2023-09-08T09:44:25.229Z,7.93
2023-09-08T09:46:55.062Z,10.90
2023-09-08T09:49:21.894Z,11.10
2023-09-08T09:51:50.432Z,6.32
2023-09-08T09:54:17.768Z,6.63
2023-09-08T09:56:46.597Z,7.78
2023-09-08T09:59:14.694Z,7.47
2023-09-08T10:01:43.568Z,9.05
2023-09-08T10:04:11.586Z,11.98
2023-09-08T10:06:40.230Z,7.30
2023-09-08T10:09:14.387Z,6.55
2023-09-08T10:11:49.733Z,6.22
2023-09-08T10:14:18.813Z,8.82
2023-09-08T10:16:53.573Z,9.30
2023-09-08T10:19:22.811Z,6.07
2023-09-08T10:24:39.895Z,6.10
2023-09-08T10:27:11.150Z,6.03
2023-09-08T10:29:38.720Z,6.25
2023-09-08T10:32:07.869Z,5.57
2023-09-08T10:34:36.513Z,10.10
2023-09-08T10:37:04.367Z,5.00
2023-09-08T10:39:41.025Z,9.38
2023-09-08T10:42:20.276Z,9.23
2023-09-08T10:44:53.142Z,8.63
2023-09-08T10:47:23.331Z,8.63
2023-09-08T10:49:55.582Z,7.60
2023-09-08T10:52:25.814Z,4.78
2023-09-08T10:54:54.290Z,12.30
2023-09-08T10:57:25.586Z,9.90
2023-09-08T10:59:55.154Z,4.40
2023-09-08T11:02:35.975Z,6.55
2023-09-08T11:05:05.897Z,6.43
2023-09-08T11:07:36.085Z,7.18
2023-09-08T11:10:02.946Z,7.18
2023-09-08T11:12:29.910Z,7.45
2023-09-08T11:14:56.649Z,8.10
2023-09-08T11:17:27.221Z,5.38
2023-09-08T11:19:53.942Z,7.55
2023-09-08T11:22:24.974Z,9.73
2023-09-08T11:24:53.625Z,4.10
2023-09-08T11:27:22.240Z,5.50
2023-09-08T11:29:48.940Z,6.45
2023-09-08T11:32:15.641Z,8.27
2023-09-08T11:34:42.977Z,8.38
2023-09-08T11:37:14.219Z,7.57
2023-09-08T11:39:41.877Z,7.13
2023-09-08T11:42:09.963Z,8.50
2023-09-08T11:44:37.388Z,9.35
2023-09-08T11:47:05.835Z,7.55
2023-09-08T11:52:07.156Z,6.15
2023-09-08T11:54:35.798Z,6.47
2023-09-08T11:57:05.338Z,6.50
2023-09-08T11:59:34.028Z,5.15
2023-09-08T12:04:28.386Z,6.10
2023-09-08T12:06:57.071Z,5.07
2023-09-08T12:09:24.922Z,4.25
2023-09-08T12:11:52.170Z,8.27
2023-09-08T12:14:19.075Z,6.15
2023-09-08T12:16:45.746Z,7.05
2023-09-08T12:19:38.516Z,6.90
2023-09-08T12:22:08.467Z,3.90
2023-09-08T12:24:54.048Z,4.13
2023-09-08T12:27:21.079Z,4.07
2023-09-08T12:30:01.936Z,6.57
2023-09-08T12:32:31.343Z,5.63
2023-09-08T12:34:59.414Z,7.68
2023-09-08T12:37:30.429Z,3.40
2023-09-08T12:39:57.827Z,4.75
2023-09-08T12:42:30.260Z,5.80
2023-09-08T12:44:57.667Z,7.18
2023-09-08T12:47:24.214Z,3.83
2023-09-08T12:49:50.896Z,5.50
2023-09-08T12:52:17.537Z,3.83
2023-09-08T12:54:56.552Z,7.15
2023-09-08T12:57:25.418Z,5.05
2023-09-08T12:59:52.923Z,6.70
2023-09-08T13:02:19.539Z,4.10
2023-09-08T13:04:49.818Z,8.20
2023-09-08T13:07:17.814Z,5.13
2023-09-08T13:10:00.837Z,4.65
2023-09-08T13:12:38.364Z,5.32
2023-09-08T13:15:08.691Z,4.95
2023-09-08T13:17:35.354Z,4.70
2023-09-08T13:20:03.342Z,5.45
2023-09-08T13:22:30.133Z,4.60
2023-09-08T13:24:56.773Z,7.32
2023-09-08T13:27:23.396Z,3.53
2023-09-08T13:29:50.037Z,5.25
2023-09-08T13:32:17.014Z,4.53
2023-09-08T13:34:44.769Z,7.70
2023-09-08T13:37:11.548Z,6.90
2023-09-08T13:39:38.417Z,3.85
2023-09-08T13:42:05.866Z,7.10
2023-09-08T13:44:32.566Z,6.90
2023-09-08T13:46:59.409Z,4.97
2023-09-08T13:49:27.735Z,3.97
2023-09-08T13:51:57.121Z,4.60
2023-09-08T13:54:25.254Z,8.05
2023-09-08T13:57:20.486Z,3.88
2023-09-08T14:00:03.666Z,4.50
2023-09-08T14:02:43.360Z,6.57
2023-09-08T14:07:46.735Z,5.05
2023-09-08T14:10:27.177Z,4.57
2023-09-08T14:12:56.890Z,4.10
2023-09-08T14:15:23.578Z,4.07
2023-09-08T14:17:50.555Z,7.95
2023-09-08T14:20:17.337Z,4.70
2023-09-08T14:22:44.100Z,6.40
2023-09-08T14:25:14.893Z,5.97
2023-09-08T14:27:41.505Z,4.20
2023-09-08T14:30:08.523Z,10.63
2023-09-08T14:32:35.105Z,5.75
2023-09-08T14:35:02.655Z,5.57
2023-09-08T14:37:29.635Z,8.23
2023-09-08T14:39:56.241Z,5.07
2023-09-08T14:42:22.831Z,9.55
2023-09-08T14:44:52.527Z,7.50
2023-09-08T14:47:34.808Z,5.40
2023-09-08T14:50:01.839Z,8.60
2023-09-08T14:52:28.335Z,10.82
2023-09-08T14:54:54.945Z,4.30
2023-09-08T14:57:21.555Z,7.07
2023-09-08T14:59:48.180Z,6.43
2023-09-08T15:02:14.996Z,6.45
2023-09-08T15:04:41.857Z,7.97
2023-09-08T15:07:09.877Z,8.10
2023-09-08T15:09:36.943Z,5.10
2023-09-08T15:12:03.767Z,4.38
2023-09-08T15:14:30.350Z,5.47
2023-09-08T15:16:57.001Z,5.55
2023-09-08T15:19:23.581Z,6.95
2023-09-08T15:21:50.143Z,6.97
2023-09-08T15:24:18.768Z,5.28
2023-09-08T15:29:16.794Z,4.13
2023-09-08T15:31:44.122Z,4.38
2023-09-08T15:34:12.661Z,5.13
2023-09-08T15:36:39.202Z,6.20
2023-09-08T15:39:24.579Z,4.75
2023-09-08T15:42:15.338Z,4.85
2023-09-08T15:44:50.921Z,6.95
2023-09-08T15:47:20.181Z,7.53
2023-09-08T15:49:53.543Z,8.50
2023-09-08T15:52:21.503Z,4.57
2023-09-08T15:54:48.170Z,5.60
2023-09-08T15:57:15.899Z,6.83
2023-09-08T15:59:42.672Z,7.32
2023-09-08T16:02:09.387Z,5.55
2023-09-08T16:04:36.215Z,6.32
2023-09-08T16:07:05.811Z,4.38
2023-09-08T16:09:32.409Z,6.72
2023-09-08T16:11:59.092Z,5.90
2023-09-08T16:14:25.695Z,4.47
2023-09-08T16:16:52.840Z,4.65
2023-09-08T16:19:20.110Z,6.18
2023-09-08T16:21:46.695Z,5.88
2023-09-08T16:24:13.334Z,5.45
2023-09-08T16:26:40.003Z,7.43
2023-09-08T16:29:06.730Z,6.43
2023-09-08T16:31:33.477Z,4.75
2023-09-08T16:34:00.087Z,9.57
2023-09-08T16:36:26.723Z,10.82
2023-09-08T16:38:53.291Z,9.38
2023-09-08T16:41:19.840Z,7.88
2023-09-08T16:43:46.706Z,8.45
2023-09-08T16:46:15.175Z,5.47
2023-09-08T16:48:42.062Z,8.23
2023-09-08T16:51:09.093Z,8.27
2023-09-08T16:53:35.905Z,5.80
2023-09-08T16:56:09.501Z,12.13
2023-09-08T16:58:37.138Z,6.00
2023-09-08T17:01:06.665Z,5.65
2023-09-08T17:03:33.527Z,11.82
2023-09-08T17:06:00.295Z,6.32
2023-09-08T17:08:51.749Z,6.75
2023-09-08T17:11:19.413Z,5.57
2023-09-08T17:13:45.979Z,6.35
2023-09-08T17:16:13.324Z,4.78
2023-09-08T17:18:40.008Z,6.93
2023-09-08T17:21:15.180Z,6.53
2023-09-08T17:23:42.151Z,12.48
2023-09-08T17:26:09.210Z,6.18
2023-09-08T17:28:36.117Z,4.63
2023-09-08T17:31:04.890Z,6.22
2023-09-08T17:33:31.473Z,11.27
2023-09-08T17:35:58.175Z,19.20
2023-09-08T17:38:30.127Z,25.67
2023-09-08T17:40:58.089Z,22.73
2023-09-08T17:45:52.411Z,17.88
2023-09-08T17:48:19.224Z,17.35
2023-09-08T17:50:45.797Z,13.38
2023-09-08T17:53:12.380Z,11.05
2023-09-08T17:55:38.952Z,11.88
2023-09-08T17:58:05.543Z,10.43
2023-09-08T18:00:32.165Z,10.27
2023-09-08T18:02:58.838Z,11.10
2023-09-08T18:05:26.450Z,11.23
2023-09-08T18:07:53.027Z,8.43
2023-09-08T18:10:19.841Z,7.90
2023-09-08T18:12:46.631Z,8.40
2023-09-08T18:15:13.271Z,7.43
2023-09-08T18:17:41.078Z,9.88
2023-09-08T18:20:08.267Z,6.45
2023-09-08T18:22:35.120Z,8.18
2023-09-08T18:25:01.917Z,11.02
2023-09-08T18:27:30.702Z,10.40
2023-09-08T18:29:57.480Z,12.80
2023-09-08T18:32:24.773Z,12.85
2023-09-08T18:34:53.668Z,12.25
2023-09-08T18:37:21.476Z,10.02
2023-09-08T18:39:48.083Z,14.60
2023-09-08T18:42:14.648Z,8.98
2023-09-08T18:44:43.486Z,10.07
2023-09-08T18:49:37.594Z,9.80
2023-09-08T18:52:04.605Z,14.50
2023-09-08T18:54:33.235Z,10.63
2023-09-08T18:57:00.043Z,8.40
2023-09-08T18:59:26.985Z,9.02
2023-09-08T19:01:55.209Z,11.23
2023-09-08T19:04:22.320Z,10.03
2023-09-08T19:06:49.182Z,9.27
2023-09-08T19:09:15.968Z,8.82
2023-09-08T19:11:42.642Z,8.35
2023-09-08T19:14:09.401Z,9.43
2023-09-08T19:16:36.273Z,7.60
2023-09-08T19:19:02.858Z,6.43
2023-09-08T19:21:29.530Z,6.65
2023-09-08T19:23:56.044Z,8.02
2023-09-08T19:26:22.641Z,10.82
2023-09-08T19:28:49.185Z,7.65
2023-09-08T19:31:15.807Z,9.02
2023-09-08T19:33:42.557Z,7.82
2023-09-08T19:36:09.149Z,8.63
2023-09-08T19:38:35.764Z,11.93
2023-09-08T19:41:05.982Z,13.43
2023-09-08T19:43:32.735Z,11.07
2023-09-08T19:46:04.677Z,10.48
2023-09-08T19:48:35.320Z,13.65
2023-09-08T19:51:04.241Z,16.42
2023-09-08T19:53:31.396Z,19.00
2023-09-08T19:55:58.778Z,21.23
2023-09-08T19:58:29.339Z,18.25
2023-09-08T20:01:04.790Z,14.88
2023-09-08T20:03:31.725Z,17.75
2023-09-08T20:05:58.576Z,16.90
2023-09-08T20:08:25.208Z,14.07
2023-09-08T20:10:53.438Z,14.10
2023-09-08T20:13:21.148Z,13.80
2023-09-08T20:15:57.977Z,14.27
2023-09-08T20:18:24.741Z,12.52
2023-09-08T20:21:05.676Z,12.75
2023-09-08T20:23:33.591Z,11.43
2023-09-08T20:26:00.630Z,14.85
2023-09-08T20:28:27.293Z,11.65
2023-09-08T20:31:09.545Z,14.15
2023-09-08T20:33:41.022Z,14.60
2023-09-08T20:36:07.622Z,9.68
2023-09-08T20:38:34.476Z,13.45
2023-09-08T20:41:01.347Z,11.60
2023-09-08T20:43:28.006Z,12.00
2023-09-08T20:45:55.180Z,13.57
2023-09-08T20:48:22.872Z,11.48
2023-09-08T20:50:59.333Z,9.40
2023-09-08T20:53:25.888Z,11.05
2023-09-08T20:55:52.470Z,10.85
2023-09-08T20:58:19.095Z,13.43
2023-09-08T21:00:45.756Z,15.65
2023-09-08T21:03:12.538Z,11.13
2023-09-08T21:05:39.376Z,10.93
2023-09-08T21:08:06.699Z,11.23
2023-09-08T21:10:33.462Z,10.52
2023-09-08T21:13:00.022Z,9.35
2023-09-08T21:15:26.584Z,9.43
2023-09-08T21:17:53.278Z,9.50
2023-09-08T21:20:20.403Z,8.85
2023-09-08T21:22:47.038Z,10.75
2023-09-08T21:25:13.932Z,10.07
2023-09-08T21:27:40.615Z,10.02
2023-09-08T21:30:07.788Z,10.35
2023-09-08T21:32:34.549Z,10.90
2023-09-08T21:35:01.319Z,12.02
2023-09-08T21:37:28.285Z,10.45
2023-09-08T21:39:54.895Z,12.88
2023-09-08T21:42:21.483Z,12.60
2023-09-08T21:44:48.046Z,10.85
2023-09-08T21:47:15.800Z,9.00
2023-09-08T21:49:42.470Z,12.18
2023-09-08T21:52:09.108Z,9.70
2023-09-08T21:54:35.716Z,9.52
2023-09-08T21:57:02.296Z,13.05
2023-09-08T21:59:31.392Z,10.82
2023-09-08T22:01:58.515Z,12.32
2023-09-08T22:04:26.373Z,12.63
2023-09-08T22:06:53.862Z,12.15
2023-09-08T22:09:20.737Z,11.40
2023-09-08T22:11:49.873Z,10.13
2023-09-08T22:14:16.653Z,15.63
2023-09-08T22:16:43.340Z,13.10
2023-09-08T22:19:11.517Z,14.10
2023-09-08T22:21:39.358Z,12.43
2023-09-08T22:24:06.380Z,10.43
2023-09-08T22:26:33.122Z,11.70
2023-09-08T22:28:59.679Z,12.02
2023-09-08T22:31:26.380Z,13.73
2023-09-08T22:33:53.184Z,12.20
2023-09-08T22:36:21.061Z,13.38
2023-09-08T22:38:48.447Z,15.00
2023-09-08T22:41:15.098Z,10.80
2023-09-08T22:43:41.736Z,12.23
2023-09-08T22:46:08.819Z,12.77
2023-09-08T22:48:36.241Z,10.52
2023-09-08T22:51:04.904Z,10.23
2023-09-08T22:53:31.768Z,10.63
2023-09-08T22:55:58.517Z,11.30
2023-09-08T22:58:26.364Z,14.60
2023-09-08T23:00:53.131Z,11.85
2023-09-08T23:03:20.151Z,12.45
2023-09-08T23:05:46.760Z,12.43
2023-09-08T23:08:13.361Z,12.05
2023-09-08T23:10:39.956Z,26.27
2023-09-08T23:13:06.523Z,18.95
2023-09-08T23:15:34.290Z,11.90
2023-09-08T23:18:00.996Z,12.70
2023-09-08T23:20:27.771Z,15.82
2023-09-08T23:22:54.429Z,12.15
2023-09-08T23:25:20.964Z,15.98
2023-09-08T23:27:47.555Z,17.35
2023-09-08T23:30:16.247Z,15.52
2023-09-08T23:32:45.597Z,14.35
2023-09-08T23:35:13.299Z,15.38
2023-09-08T23:37:40.052Z,19.85
2023-09-08T23:40:13.565Z,18.48
2023-09-08T23:42:40.615Z,19.38
2023-09-08T23:45:07.570Z,24.42
2023-09-08T23:47:34.495Z,23.65
2023-09-08T23:50:01.309Z,24.73
2023-09-08T23:52:28.582Z,22.88
2023-09-08T23:54:55.320Z,20.40
2023-09-08T23:57:21.989Z,17.83
2023-09-08T23:59:48.726Z,18.35
